Terminal Aerodrome Forecast
Issued by NWS

Home | Current Version | Previous Version | Text Only | Print | Product List | Glossary On
Versions: 1 2 3 4 5 6 7 8 9 10 11 12 13 14 15 16 17 18
000
FTUS46 KSTO 242329
TAFRBL
TAF
KRBL 242329Z 2500/2524 34005KT P6SM SCT250
     FM250500 33004KT P6SM OVC250
      TEMPO 2509/2513 4SM BR FEW003 OVC100=

USA.gov is the U.S. government's official web portal to all federal, state and local government web resources and services.